KMEI/MEI METAR and TAF weather

Enter ICAO airport designator
Station Type Date Time Source
KMEI METAR 2018/12/13 06:58 UTC NOAA

KMEI 130658Z AUTO 18005KT 10SM FEW070 11/08 A3008 RMK AO2 SLP186 T01110083 TSNO


Station Type Date Time Source
KMEI Decoded METAR 2018/12/13 06:58 UTC NOAA

MERIDIAN KEY FIELD, MS, United States (KMEI) 32-20N 088-45W 89M
Dec 13, 2018 - 01:58 AM EST / 2018.12.13 0658 UTC
Wind: from the S (180 degrees) at 6 MPH (5 KT):0
Visibility: 10 mile(s):0
Sky conditions: mostly clear
Temperature: 52.0 F (11.1 C)
Dew Point: 46.9 F (8.3 C)
Relative Humidity: 82%
Pressure (altimeter): 30.08 in. Hg (1018 hPa)
ob: KMEI 130658Z AUTO 18005KT 10SM FEW070 11/08 A3008 RMK AO2 SLP186 T01110083 TSNO
cycle: 7

Station Type Date Time Source
KMEI TAF 2018/12/13 06:45 UTC NOAA

TAF KMEI 130541Z 1306/1406 16006KT P6SM OVC070
FM131300 13013KT P6SM BKN015 OVC025
FM132100 11015G22KT 4SM RA BR OVC007
FM140300 10015G22KT 4SM BR OVC007


Example: see airport list